sensor_id;sensor_type;location;lat;lon;timestamp;P1;durP1;ratioP1;P2;durP2;ratioP2
10769;SDS011;5437;50.852;4.438;2023-03-13T08:42:07;4.55;;;2.40;;
10769;SDS011;5437;50.852;4.438;2023-03-13T08:44:34;5.35;;;2.30;;
10769;SDS011;5437;50.852;4.438;2023-03-13T08:47:00;4.32;;;2.30;;
10769;SDS011;5437;50.852;4.438;2023-03-13T08:49:27;4.45;;;2.20;;
10769;SDS011;5437;50.852;4.438;2023-03-13T08:51:53;5.90;;;2.17;;
10769;SDS011;5437;50.852;4.438;2023-03-13T08:54:20;2.95;;;1.80;;
10769;SDS011;5437;50.852;4.438;2023-03-13T08:56:46;2.60;;;2.00;;
10769;SDS011;5437;50.852;4.438;2023-03-13T08:59:12;2.80;;;1.50;;
10769;SDS011;5437;50.852;4.438;2023-03-13T09:01:39;2.92;;;1.90;;
10769;SDS011;5437;50.852;4.438;2023-03-13T09:04:06;4.22;;;1.77;;
10769;SDS011;5437;50.852;4.438;2023-03-13T09:06:32;3.90;;;2.00;;
10769;SDS011;5437;50.852;4.438;2023-03-13T09:08:59;2.90;;;2.10;;
10769;SDS011;5437;50.852;4.438;2023-03-13T09:11:26;2.53;;;1.90;;
10769;SDS011;5437;50.852;4.438;2023-03-13T09:13:53;3.17;;;1.70;;
10769;SDS011;5437;50.852;4.438;2023-03-13T09:16:20;3.75;;;1.73;;
10769;SDS011;5437;50.852;4.438;2023-03-13T09:18:47;2.78;;;1.52;;
10769;SDS011;5437;50.852;4.438;2023-03-13T09:21:14;2.65;;;1.77;;
10769;SDS011;5437;50.852;4.438;2023-03-13T09:23:41;4.80;;;1.73;;
10769;SDS011;5437;50.852;4.438;2023-03-13T09:26:07;3.20;;;1.50;;
10769;SDS011;5437;50.852;4.438;2023-03-13T09:28:33;4.15;;;1.92;;
10769;SDS011;5437;50.852;4.438;2023-03-13T09:31:09;2.45;;;1.65;;
10769;SDS011;5437;50.852;4.438;2023-03-13T09:33:35;4.25;;;1.67;;
10769;SDS011;5437;50.852;4.438;2023-03-13T09:36:02;3.00;;;1.60;;
10769;SDS011;5437;50.852;4.438;2023-03-13T09:38:28;2.15;;;1.50;;
10769;SDS011;5437;50.852;4.438;2023-03-13T09:40:54;2.50;;;1.58;;
10769;SDS011;5437;50.852;4.438;2023-03-13T09:45:51;4.22;;;1.77;;
10769;SDS011;5437;50.852;4.438;2023-03-13T09:48:25;2.55;;;1.48;;
10769;SDS011;5437;50.852;4.438;2023-03-13T09:53:41;2.15;;;1.50;;
10769;SDS011;5437;50.852;4.438;2023-03-13T09:56:11;4.93;;;1.50;;
10769;SDS011;5437;50.852;4.438;2023-03-13T09:58:38;2.60;;;1.30;;
10769;SDS011;5437;50.852;4.438;2023-03-13T10:01:07;3.22;;;1.45;;
10769;SDS011;5437;50.852;4.438;2023-03-13T10:03:38;1.40;;;1.30;;
10769;SDS011;5437;50.852;4.438;2023-03-13T10:06:05;1.98;;;1.48;;
10769;SDS011;5437;50.852;4.438;2023-03-13T10:08:36;1.92;;;1.40;;
10769;SDS011;5437;50.852;4.438;2023-03-13T10:11:03;1.75;;;1.45;;
10769;SDS011;5437;50.852;4.438;2023-03-13T10:16:02;1.88;;;1.20;;
10769;SDS011;5437;50.852;4.438;2023-03-13T10:18:30;2.08;;;1.30;;
10769;SDS011;5437;50.852;4.438;2023-03-13T10:20:58;1.60;;;1.13;;
10769;SDS011;5437;50.852;4.438;2023-03-13T10:25:56;4.15;;;1.42;;
10769;SDS011;5437;50.852;4.438;2023-03-13T10:28:24;2.65;;;1.35;;
10769;SDS011;5437;50.852;4.438;2023-03-13T10:31:01;2.33;;;1.42;;
10769;SDS011;5437;50.852;4.438;2023-03-13T10:33:31;1.73;;;1.40;;
10769;SDS011;5437;50.852;4.438;2023-03-13T10:38:33;1.58;;;1.40;;
10769;SDS011;5437;50.852;4.438;2023-03-13T10:41:17;2.78;;;1.33;;
10769;SDS011;5437;50.852;4.438;2023-03-13T10:43:51;2.85;;;1.60;;
10769;SDS011;5437;50.852;4.438;2023-03-13T10:46:25;2.17;;;1.48;;
10769;SDS011;5437;50.852;4.438;2023-03-13T10:48:52;3.72;;;1.70;;
10769;SDS011;5437;50.852;4.438;2023-03-13T10:51:22;1.50;;;1.40;;
10769;SDS011;5437;50.852;4.438;2023-03-13T10:53:49;3.28;;;1.52;;
10769;SDS011;5437;50.852;4.438;2023-03-13T10:56:22;1.85;;;1.20;;
10769;SDS011;5437;50.852;4.438;2023-03-13T10:58:50;4.05;;;1.48;;
10769;SDS011;5437;50.852;4.438;2023-03-13T11:01:24;3.72;;;1.63;;
10769;SDS011;5437;50.852;4.438;2023-03-13T11:03:52;2.65;;;1.50;;
10769;SDS011;5437;50.852;4.438;2023-03-13T11:06:26;2.30;;;1.30;;
10769;SDS011;5437;50.852;4.438;2023-03-13T11:11:25;3.17;;;1.45;;
10769;SDS011;5437;50.852;4.438;2023-03-13T11:13:55;2.47;;;1.30;;
10769;SDS011;5437;50.852;4.438;2023-03-13T11:16:31;2.30;;;1.20;;
10769;SDS011;5437;50.852;4.438;2023-03-13T11:22:01;1.67;;;1.27;;
10769;SDS011;5437;50.852;4.438;2023-03-13T11:24:43;2.17;;;1.20;;
10769;SDS011;5437;50.852;4.438;2023-03-13T11:32:09;3.00;;;1.23;;
10769;SDS011;5437;50.852;4.438;2023-03-13T11:34:41;2.92;;;1.10;;
10769;SDS011;5437;50.852;4.438;2023-03-13T11:37:13;1.40;;;1.10;;
10769;SDS011;5437;50.852;4.438;2023-03-13T11:39:48;3.58;;;1.20;;
10769;SDS011;5437;50.852;4.438;2023-03-13T11:42:21;2.78;;;1.25;;
10769;SDS011;5437;50.852;4.438;2023-03-13T11:47:47;2.70;;;1.00;;
10769;SDS011;5437;50.852;4.438;2023-03-13T11:52:45;1.70;;;1.27;;
10769;SDS011;5437;50.852;4.438;2023-03-13T11:57:53;1.52;;;1.08;;
10769;SDS011;5437;50.852;4.438;2023-03-13T12:03:03;2.75;;;1.20;;
10769;SDS011;5437;50.852;4.438;2023-03-13T12:05:37;2.90;;;1.17;;
10769;SDS011;5437;50.852;4.438;2023-03-13T12:08:09;2.05;;;1.20;;
10769;SDS011;5437;50.852;4.438;2023-03-13T12:10:41;2.40;;;1.02;;
10769;SDS011;5437;50.852;4.438;2023-03-13T12:13:14;1.20;;;1.10;;
10769;SDS011;5437;50.852;4.438;2023-03-13T12:15:51;1.50;;;0.90;;
10769;SDS011;5437;50.852;4.438;2023-03-13T12:18:21;1.27;;;1.10;;
10769;SDS011;5437;50.852;4.438;2023-03-13T12:28:36;2.42;;;1.15;;
10769;SDS011;5437;50.852;4.438;2023-03-13T12:33:42;1.75;;;1.02;;
10769;SDS011;5437;50.852;4.438;2023-03-13T12:41:43;3.10;;;1.17;;
10769;SDS011;5437;50.852;4.438;2023-03-13T12:44:13;2.33;;;1.05;;
10769;SDS011;5437;50.852;4.438;2023-03-13T12:46:45;1.83;;;1.00;;
10769;SDS011;5437;50.852;4.438;2023-03-13T12:59:43;2.58;;;1.10;;
10769;SDS011;5437;50.852;4.438;2023-03-13T13:04:43;2.70;;;1.42;;
10769;SDS011;5437;50.852;4.438;2023-03-13T13:07:26;2.63;;;1.10;;
10769;SDS011;5437;50.852;4.438;2023-03-13T13:12:28;1.35;;;1.00;;
10769;SDS011;5437;50.852;4.438;2023-03-13T13:14:55;1.52;;;1.10;;
10769;SDS011;5437;50.852;4.438;2023-03-13T13:19:54;2.63;;;1.13;;
10769;SDS011;5437;50.852;4.438;2023-03-13T13:32:50;1.98;;;1.05;;
10769;SDS011;5437;50.852;4.438;2023-03-13T13:35:19;2.63;;;1.00;;
10769;SDS011;5437;50.852;4.438;2023-03-13T13:37:46;3.25;;;1.20;;
10769;SDS011;5437;50.852;4.438;2023-03-13T13:42:52;3.53;;;1.38;;
10769;SDS011;5437;50.852;4.438;2023-03-13T13:45:22;3.25;;;1.20;;
10769;SDS011;5437;50.852;4.438;2023-03-13T13:47:50;4.65;;;1.15;;
10769;SDS011;5437;50.852;4.438;2023-03-13T13:50:17;4.20;;;1.30;;
10769;SDS011;5437;50.852;4.438;2023-03-13T13:52:43;4.93;;;1.38;;
10769;SDS011;5437;50.852;4.438;2023-03-13T13:57:57;3.00;;;1.23;;
10769;SDS011;5437;50.852;4.438;2023-03-13T14:00:25;4.80;;;1.50;;
10769;SDS011;5437;50.852;4.438;2023-03-13T14:02:52;2.42;;;1.27;;
10769;SDS011;5437;50.852;4.438;2023-03-13T14:05:20;4.95;;;1.42;;
10769;SDS011;5437;50.852;4.438;2023-03-13T14:12:39;2.72;;;1.15;;
10769;SDS011;5437;50.852;4.438;2023-03-13T14:17:47;3.08;;;1.23;;
10769;SDS011;5437;50.852;4.438;2023-03-13T14:20:27;1.67;;;1.10;;
10769;SDS011;5437;50.852;4.438;2023-03-13T14:22:55;2.45;;;1.30;;
10769;SDS011;5437;50.852;4.438;2023-03-13T14:25:22;2.78;;;1.30;;
10769;SDS011;5437;50.852;4.438;2023-03-13T14:27:48;3.80;;;1.40;;
10769;SDS011;5437;50.852;4.438;2023-03-13T14:30:16;5.00;;;1.48;;
10769;SDS011;5437;50.852;4.438;2023-03-13T14:32:42;5.38;;;1.40;;
10769;SDS011;5437;50.852;4.438;2023-03-13T14:35:09;3.63;;;1.50;;
10769;SDS011;5437;50.852;4.438;2023-03-13T14:40:05;5.03;;;1.35;;
10769;SDS011;5437;50.852;4.438;2023-03-13T14:42:41;2.65;;;1.20;;
10769;SDS011;5437;50.852;4.438;2023-03-13T14:45:15;2.63;;;1.30;;
10769;SDS011;5437;50.852;4.438;2023-03-13T14:47:43;3.33;;;1.50;;
10769;SDS011;5437;50.852;4.438;2023-03-13T14:50:10;2.50;;;1.40;;
10769;SDS011;5437;50.852;4.438;2023-03-13T14:52:37;4.28;;;1.40;;
10769;SDS011;5437;50.852;4.438;2023-03-13T14:57:54;2.28;;;1.38;;
10769;SDS011;5437;50.852;4.438;2023-03-13T15:00:37;5.30;;;1.65;;
10769;SDS011;5437;50.852;4.438;2023-03-13T15:08:29;3.25;;;1.40;;
10769;SDS011;5437;50.852;4.438;2023-03-13T15:10:55;4.00;;;1.52;;
10769;SDS011;5437;50.852;4.438;2023-03-13T15:13:22;5.35;;;1.65;;
10769;SDS011;5437;50.852;4.438;2023-03-13T15:15:49;4.43;;;1.30;;
10769;SDS011;5437;50.852;4.438;2023-03-13T15:20:48;2.92;;;1.48;;
10769;SDS011;5437;50.852;4.438;2023-03-13T15:23:15;3.80;;;1.60;;
10769;SDS011;5437;50.852;4.438;2023-03-13T15:25:41;4.25;;;1.60;;
10769;SDS011;5437;50.852;4.438;2023-03-13T15:28:17;5.15;;;1.50;;
10769;SDS011;5437;50.852;4.438;2023-03-13T15:30:44;3.83;;;1.60;;
10769;SDS011;5437;50.852;4.438;2023-03-13T15:33:14;4.25;;;1.80;;
10769;SDS011;5437;50.852;4.438;2023-03-13T15:35:41;3.08;;;1.70;;
10769;SDS011;5437;50.852;4.438;2023-03-13T15:38:14;3.28;;;1.70;;
10769;SDS011;5437;50.852;4.438;2023-03-13T15:40:41;3.58;;;1.90;;
10769;SDS011;5437;50.852;4.438;2023-03-13T15:43:07;3.80;;;1.70;;
10769;SDS011;5437;50.852;4.438;2023-03-13T15:45:33;5.63;;;1.60;;
10769;SDS011;5437;50.852;4.438;2023-03-13T15:48:00;5.18;;;1.90;;
10769;SDS011;5437;50.852;4.438;2023-03-13T15:50:26;4.53;;;1.60;;
10769;SDS011;5437;50.852;4.438;2023-03-13T15:52:56;6.22;;;1.92;;
10769;SDS011;5437;50.852;4.438;2023-03-13T15:55:24;4.68;;;1.60;;
10769;SDS011;5437;50.852;4.438;2023-03-13T15:57:51;4.20;;;1.70;;
10769;SDS011;5437;50.852;4.438;2023-03-13T16:00:18;2.90;;;1.70;;
10769;SDS011;5437;50.852;4.438;2023-03-13T16:02:45;5.70;;;1.80;;
10769;SDS011;5437;50.852;4.438;2023-03-13T16:05:11;5.97;;;1.45;;
10769;SDS011;5437;50.852;4.438;2023-03-13T16:07:38;3.80;;;1.70;;
10769;SDS011;5437;50.852;4.438;2023-03-13T16:10:06;3.55;;;1.40;;
10769;SDS011;5437;50.852;4.438;2023-03-13T16:12:38;4.63;;;2.00;;
10769;SDS011;5437;50.852;4.438;2023-03-13T16:15:05;3.08;;;1.80;;
10769;SDS011;5437;50.852;4.438;2023-03-13T16:17:31;5.72;;;1.95;;
10769;SDS011;5437;50.852;4.438;2023-03-13T16:19:57;4.43;;;1.88;;
10769;SDS011;5437;50.852;4.438;2023-03-13T16:22:23;5.80;;;1.67;;
10769;SDS011;5437;50.852;4.438;2023-03-13T16:24:49;4.25;;;1.60;;
10769;SDS011;5437;50.852;4.438;2023-03-13T16:27:15;5.22;;;1.88;;
10769;SDS011;5437;50.852;4.438;2023-03-13T16:29:42;6.63;;;1.60;;
10769;SDS011;5437;50.852;4.438;2023-03-13T16:32:10;4.55;;;2.15;;
10769;SDS011;5437;50.852;4.438;2023-03-13T16:34:36;4.93;;;2.15;;
10769;SDS011;5437;50.852;4.438;2023-03-13T16:37:09;6.28;;;1.90;;
10769;SDS011;5437;50.852;4.438;2023-03-13T16:39:35;5.32;;;1.92;;
10769;SDS011;5437;50.852;4.438;2023-03-13T16:42:01;5.70;;;1.67;;
10769;SDS011;5437;50.852;4.438;2023-03-13T16:44:27;8.82;;;2.20;;
10769;SDS011;5437;50.852;4.438;2023-03-13T16:46:54;5.47;;;1.70;;
10769;SDS011;5437;50.852;4.438;2023-03-13T16:49:20;4.07;;;1.80;;
10769;SDS011;5437;50.852;4.438;2023-03-13T16:51:46;7.10;;;2.20;;
10769;SDS011;5437;50.852;4.438;2023-03-13T16:54:12;6.45;;;2.05;;
10769;SDS011;5437;50.852;4.438;2023-03-13T16:56:39;7.00;;;2.03;;
10769;SDS011;5437;50.852;4.438;2023-03-13T16:59:06;4.38;;;1.92;;
10769;SDS011;5437;50.852;4.438;2023-03-13T17:01:32;6.45;;;2.10;;
10769;SDS011;5437;50.852;4.438;2023-03-13T17:03:58;7.25;;;2.05;;
10769;SDS011;5437;50.852;4.438;2023-03-13T17:06:43;4.50;;;2.10;;
10769;SDS011;5437;50.852;4.438;2023-03-13T17:09:11;4.18;;;1.85;;
10769;SDS011;5437;50.852;4.438;2023-03-13T17:11:37;4.60;;;1.80;;
10769;SDS011;5437;50.852;4.438;2023-03-13T17:14:03;7.10;;;2.25;;
10769;SDS011;5437;50.852;4.438;2023-03-13T17:16:30;4.57;;;1.85;;
10769;SDS011;5437;50.852;4.438;2023-03-13T17:18:58;4.68;;;2.20;;
10769;SDS011;5437;50.852;4.438;2023-03-13T17:21:25;5.20;;;1.73;;
10769;SDS011;5437;50.852;4.438;2023-03-13T17:23:53;5.80;;;2.30;;
10769;SDS011;5437;50.852;4.438;2023-03-13T17:26:20;5.72;;;2.10;;
10769;SDS011;5437;50.852;4.438;2023-03-13T17:28:47;5.03;;;2.10;;
10769;SDS011;5437;50.852;4.438;2023-03-13T17:31:14;5.53;;;2.33;;
